Time;durP1;ratioP1;P1;durP2;ratioP2;P2;SDS_P1;SDS_P2;PMS_P1;PMS_P2;Temp;Humidity;BMP_temperature;BMP_pressure;BME280_temperature;BME280_humidity;BME280_pressure;Samples;Min_cycle;Max_cycle;Signal;HPM_P1;HPM_P2
2022/02/23 00:00:29;;;;;;;4.57;2.90;;;16.80;66.70;;;;;;5066267;28;20037;-21
2022/02/23 00:02:55;;;;;;;2.78;2.45;;;16.80;66.50;;;;;;5069916;28;20040;-22
2022/02/23 00:05:21;;;;;;;3.58;2.80;;;16.80;66.60;;;;;;5065200;28;20032;-21
2022/02/23 00:07:46;;;;;;;4.18;2.45;;;16.80;66.60;;;;;;5060362;28;20067;-22
2022/02/23 00:10:12;;;;;;;2.90;2.58;;;16.80;66.60;;;;;;5054119;28;20037;-21
2022/02/23 00:12:38;;;;;;;2.88;2.40;;;16.70;66.60;;;;;;5066681;28;20044;-21
2022/02/23 00:15:04;;;;;;;2.35;2.15;;;16.80;66.40;;;;;;5066020;28;20111;-21
2022/02/23 00:17:30;;;;;;;3.72;3.05;;;16.80;66.30;;;;;;5068915;28;20044;-21
2022/02/23 00:19:56;;;;;;;2.55;2.30;;;16.80;66.20;;;;;;5063293;28;20102;-21
2022/02/23 00:22:22;;;;;;;2.40;2.13;;;16.80;66.30;;;;;;5062803;28;20049;-21
2022/02/23 00:24:47;;;;;;;2.33;2.13;;;16.80;67.20;;;;;;5071940;28;20405;-21
2022/02/23 00:27:13;;;;;;;3.55;2.22;;;16.70;66.50;;;;;;5065410;28;20033;-21
2022/02/23 00:29:39;;;;;;;2.45;2.20;;;16.70;66.50;;;;;;5065730;28;20061;-20
2022/02/23 00:32:05;;;;;;;3.08;2.10;;;16.70;66.50;;;;;;5063459;28;20766;-23
2022/02/23 00:34:31;;;;;;;2.80;2.53;;;16.70;66.40;;;;;;5070965;28;20055;-21
2022/02/23 00:36:56;;;;;;;2.65;2.08;;;16.70;66.40;;;;;;5061051;28;20048;-21
2022/02/23 00:39:23;;;;;;;2.25;2.10;;;16.70;66.40;;;;;;5065026;28;20131;-22
2022/02/23 00:41:48;;;;;;;3.05;2.20;;;16.70;66.50;;;;;;5071698;28;20044;-21
2022/02/23 00:44:14;;;;;;;2.90;2.70;;;16.70;66.40;;;;;;5068619;28;20563;-21
2022/02/23 00:46:40;;;;;;;2.95;2.45;;;16.60;66.60;;;;;;5064067;28;20116;-20
2022/02/23 00:49:06;;;;;;;2.53;2.33;;;16.70;66.50;;;;;;5065584;28;20120;-21
2022/02/23 00:51:31;;;;;;;2.67;2.20;;;16.70;66.40;;;;;;5061054;28;20062;-22
2022/02/23 00:53:57;;;;;;;3.00;2.70;;;16.70;66.40;;;;;;5064354;28;20072;-21
2022/02/23 00:56:23;;;;;;;1.98;1.77;;;16.60;66.50;;;;;;5065458;28;20048;-21
2022/02/23 00:58:49;;;;;;;2.95;1.90;;;16.70;66.60;;;;;;5067184;28;20067;-21
2022/02/23 01:01:14;;;;;;;1.60;1.50;;;16.70;66.60;;;;;;5066895;28;20036;-21
2022/02/23 01:03:40;;;;;;;2.75;2.47;;;16.70;66.30;;;;;;5067372;28;20075;-21
2022/02/23 01:06:05;;;;;;;2.15;1.92;;;16.70;66.30;;;;;;5063733;28;20037;-21
2022/02/23 01:08:32;;;;;;;2.55;2.30;;;16.70;66.40;;;;;;5063212;28;20048;-21
2022/02/23 01:10:57;;;;;;;2.50;1.88;;;16.60;66.50;;;;;;5062898;28;20632;-21
2022/02/23 01:13:23;;;;;;;2.38;1.90;;;16.60;66.60;;;;;;5060808;28;20520;-20
2022/02/23 01:15:49;;;;;;;2.33;2.15;;;16.60;66.50;;;;;;5069214;28;20123;-22
2022/02/23 01:18:15;;;;;;;2.55;1.95;;;16.60;66.50;;;;;;5065237;28;20036;-21
2022/02/23 01:20:40;;;;;;;2.90;2.30;;;16.60;66.40;;;;;;5063706;28;20033;-22
2022/02/23 01:23:06;;;;;;;1.95;1.75;;;16.60;66.40;;;;;;5063922;28;20551;-21
2022/02/23 01:25:31;;;;;;;2.15;1.95;;;16.60;66.40;;;;;;5067760;28;20127;-20
2022/02/23 01:27:59;;;;;;;2.00;1.80;;;16.60;66.50;;;;;;5068575;28;20048;-20
2022/02/23 01:30:25;;;;;;;1.70;1.60;;;16.60;66.50;;;;;;5069421;28;20418;-21
2022/02/23 01:32:51;;;;;;;2.05;1.63;;;16.60;66.50;;;;;;5070010;28;20045;-21
2022/02/23 01:35:16;;;;;;;2.00;1.75;;;16.60;67.30;;;;;;5067703;28;20040;-21
2022/02/23 01:37:42;;;;;;;4.93;2.13;;;16.50;66.50;;;;;;5068638;28;20120;-21
2022/02/23 01:40:08;;;;;;;1.55;1.45;;;16.60;66.40;;;;;;5066649;28;20044;-21
2022/02/23 01:42:33;;;;;;;1.77;1.67;;;16.60;66.50;;;;;;5067333;28;20515;-21
2022/02/23 01:44:59;;;;;;;2.42;1.70;;;16.50;66.70;;;;;;5069852;28;20400;-21
2022/02/23 01:47:25;;;;;;;1.33;1.23;;;16.50;66.60;;;;;;5069873;28;20047;-21
2022/02/23 01:49:51;;;;;;;1.67;1.58;;;16.50;66.50;;;;;;5067724;28;20048;-22
2022/02/23 01:52:16;;;;;;;1.75;1.25;;;16.50;66.40;;;;;;5068339;28;20382;-27
2022/02/23 01:54:42;;;;;;;1.58;1.48;;;16.50;66.40;;;;;;5067838;28;20055;-22
2022/02/23 01:57:07;;;;;;;1.75;1.40;;;16.50;66.40;;;;;;5066717;28;20408;-21
2022/02/23 01:59:33;;;;;;;1.70;1.60;;;16.50;66.40;;;;;;5067384;28;20040;-23
2022/02/23 02:01:59;;;;;;;1.55;1.45;;;16.50;66.50;;;;;;5067765;28;20058;-20
2022/02/23 02:04:25;;;;;;;2.55;1.67;;;16.50;66.50;;;;;;5070252;28;20150;-21
2022/02/23 02:06:51;;;;;;;1.52;1.42;;;16.50;66.50;;;;;;5067195;28;20059;-21
2022/02/23 02:09:17;;;;;;;1.70;1.60;;;16.50;66.40;;;;;;5068714;28;20040;-24
2022/02/23 02:11:43;;;;;;;1.50;1.40;;;16.50;66.30;;;;;;5070897;28;20049;-23
2022/02/23 02:14:09;;;;;;;1.67;1.58;;;16.50;66.30;;;;;;5069695;28;20043;-21
2022/02/23 02:16:34;;;;;;;2.13;1.60;;;16.50;66.20;;;;;;5067023;28;20040;-22
2022/02/23 02:19:03;;;;;;;1.40;1.30;;;16.50;66.30;;;;;;5066645;28;20056;-22
2022/02/23 02:21:57;;;;;;;1.75;1.65;;;16.50;66.20;;;;;;5067186;28;20096;-22
2022/02/23 02:24:24;;;;;;;1.35;1.25;;;16.60;66.10;;;;;;5072261;28;20040;-21
2022/02/23 02:26:50;;;;;;;1.98;1.77;;;16.50;66.20;;;;;;5066288;28;20072;-20
2022/02/23 02:29:15;;;;;;;1.75;1.65;;;16.50;66.20;;;;;;5067034;28;20846;-21
2022/02/23 02:31:41;;;;;;;2.15;1.70;;;16.50;66.30;;;;;;5067693;28;20061;-21
2022/02/23 02:34:06;;;;;;;2.35;1.75;;;16.50;66.30;;;;;;5070149;28;20046;-22
2022/02/23 02:36:32;;;;;;;1.15;1.05;;;16.50;66.10;;;;;;5065353;28;20503;-21
2022/02/23 02:38:58;;;;;;;1.40;1.30;;;16.50;66.10;;;;;;5066934;28;20071;-21
2022/02/23 02:41:23;;;;;;;1.35;1.25;;;16.50;66.10;;;;;;5066182;28;20041;-21
2022/02/23 02:43:49;;;;;;;1.27;1.15;;;16.50;66.10;;;;;;5065699;28;20038;-20
2022/02/23 02:46:14;;;;;;;1.83;1.20;;;16.50;66.00;;;;;;5069112;28;20100;-21
2022/02/23 02:48:41;;;;;;;2.03;1.30;;;16.50;66.20;;;;;;5066708;28;20060;-21
2022/02/23 02:51:07;;;;;;;1.70;1.60;;;16.50;66.00;;;;;;5064932;28;20045;-21
2022/02/23 02:53:32;;;;;;;2.38;1.60;;;16.60;66.00;;;;;;5066601;28;20075;-21
2022/02/23 02:55:58;;;;;;;1.38;1.27;;;16.50;65.90;;;;;;5067789;28;20501;-21
2022/02/23 02:58:23;;;;;;;1.60;1.50;;;16.50;66.00;;;;;;5067973;28;20035;-21
2022/02/23 03:00:49;;;;;;;1.30;1.20;;;16.50;66.10;;;;;;5069682;28;20406;-21
2022/02/23 03:03:14;;;;;;;1.40;1.30;;;16.60;66.10;;;;;;5069290;28;20081;-21
2022/02/23 03:05:40;;;;;;;1.40;1.30;;;16.50;66.00;;;;;;5070023;28;20512;-21
2022/02/23 03:08:05;;;;;;;1.65;1.45;;;16.60;66.10;;;;;;5067791;28;20040;-21
2022/02/23 03:10:31;;;;;;;2.33;1.35;;;16.50;65.90;;;;;;5070632;28;20124;-21
2022/02/23 03:12:57;;;;;;;1.45;1.35;;;16.50;66.10;;;;;;5069930;28;20036;-20
2022/02/23 03:15:22;;;;;;;2.33;1.30;;;16.50;66.00;;;;;;5066278;28;20122;-21
2022/02/23 03:17:48;;;;;;;1.27;1.17;;;16.50;66.30;;;;;;5064155;28;20103;-21
2022/02/23 03:20:13;;;;;;;1.23;1.13;;;16.50;66.10;;;;;;5067162;28;20060;-21
2022/02/23 03:22:39;;;;;;;2.35;1.48;;;16.50;66.10;;;;;;5064526;28;20041;-21
2022/02/23 03:25:05;;;;;;;1.50;1.00;;;16.50;66.00;;;;;;5064945;28;20156;-21
2022/02/23 03:27:31;;;;;;;1.45;1.17;;;16.50;65.90;;;;;;5066291;28;20045;-21
2022/02/23 03:29:57;;;;;;;1.52;1.40;;;16.50;65.90;;;;;;5066306;28;20087;-22
2022/02/23 03:32:22;;;;;;;1.50;0.93;;;16.50;66.00;;;;;;5065403;28;20570;-21
2022/02/23 03:34:48;;;;;;;1.55;1.20;;;16.50;66.00;;;;;;5065481;28;20053;-20
2022/02/23 03:37:14;;;;;;;1.17;1.02;;;16.50;66.20;;;;;;5067251;28;20045;-21
2022/02/23 03:39:39;;;;;;;1.20;1.10;;;16.50;66.20;;;;;;5067867;28;20048;-21
2022/02/23 03:42:05;;;;;;;1.30;1.20;;;16.50;66.10;;;;;;5072585;28;20047;-21
2022/02/23 03:44:31;;;;;;;1.25;1.15;;;16.40;66.10;;;;;;5071204;28;20040;-21
2022/02/23 03:46:56;;;;;;;1.52;1.40;;;16.40;66.20;;;;;;5067189;28;20417;-21
2022/02/23 03:49:22;;;;;;;1.25;1.05;;;16.50;66.10;;;;;;5066851;28;20071;-21
2022/02/23 03:51:47;;;;;;;1.58;1.20;;;16.50;66.00;;;;;;5062894;28;20041;-21
2022/02/23 03:54:13;;;;;;;1.30;1.20;;;16.40;66.10;;;;;;5066116;28;20508;-21
2022/02/23 03:56:39;;;;;;;1.00;0.90;;;16.40;66.10;;;;;;5063914;28;20040;-21
2022/02/23 03:59:09;;;;;;;1.17;1.08;;;16.50;66.10;;;;;;5070010;28;20051;-22
2022/02/23 04:01:36;;;;;;;1.40;1.23;;;16.50;65.90;;;;;;5065529;28;20519;-23
2022/02/23 04:04:02;;;;;;;2.00;1.15;;;16.50;65.90;;;;;;5063659;28;20094;-22
2022/02/23 04:06:27;;;;;;;1.83;1.70;;;16.50;65.90;;;;;;5054743;28;20044;-21
2022/02/23 04:08:54;;;;;;;1.20;1.10;;;16.40;66.00;;;;;;5062380;28;20051;-21
2022/02/23 04:11:20;;;;;;;1.02;0.93;;;16.50;65.90;;;;;;5069055;28;20044;-21
2022/02/23 04:13:45;;;;;;;1.10;1.00;;;16.50;66.00;;;;;;5067408;28;20063;-22
2022/02/23 04:16:11;;;;;;;0.90;0.90;;;16.40;65.90;;;;;;5065646;28;20059;-21
2022/02/23 04:18:37;;;;;;;1.48;1.38;;;16.40;66.00;;;;;;5064204;28;20056;-21
2022/02/23 04:21:04;;;;;;;1.40;1.17;;;16.40;66.00;;;;;;5064417;28;20059;-21
2022/02/23 04:23:29;;;;;;;1.48;0.90;;;16.40;66.00;;;;;;5063817;28;20074;-21
2022/02/23 04:25:55;;;;;;;0.80;0.80;;;16.40;65.90;;;;;;5063003;28;20041;-21
2022/02/23 04:28:23;;;;;;;2.53;1.30;;;16.40;66.10;;;;;;5065247;28;20045;-20
2022/02/23 04:30:49;;;;;;;1.02;0.98;;;16.50;65.90;;;;;;5063028;28;20045;-21
2022/02/23 04:33:15;;;;;;;1.95;1.20;;;16.40;66.10;;;;;;5068666;28;20107;-20
2022/02/23 04:35:40;;;;;;;1.27;1.17;;;16.40;66.10;;;;;;5063492;28;20045;-21
2022/02/23 04:38:08;;;;;;;1.83;1.10;;;16.40;66.20;;;;;;5065944;28;20047;-21
2022/02/23 04:40:34;;;;;;;1.23;1.00;;;16.40;66.20;;;;;;5067418;28;20066;-21
2022/02/23 04:42:59;;;;;;;1.58;1.25;;;16.40;66.20;;;;;;5065171;28;20095;-21
2022/02/23 04:45:25;;;;;;;1.45;1.10;;;16.30;66.40;;;;;;5058727;28;20045;-21
2022/02/23 04:47:50;;;;;;;2.67;1.35;;;16.40;66.50;;;;;;5054555;28;20033;-21
2022/02/23 04:50:16;;;;;;;1.45;1.25;;;16.40;66.40;;;;;;5064794;28;20048;-21
2022/02/23 04:52:42;;;;;;;1.13;0.90;;;16.40;66.10;;;;;;5063714;28;20032;-21
2022/02/23 04:55:08;;;;;;;1.05;0.95;;;16.40;66.20;;;;;;5056514;28;20037;-21
2022/02/23 04:57:33;;;;;;;1.17;0.93;;;16.40;66.20;;;;;;5054692;28;20048;-22
2022/02/23 04:59:59;;;;;;;1.00;1.00;;;16.40;66.30;;;;;;5059426;28;20049;-21
2022/02/23 05:02:25;;;;;;;1.65;1.20;;;16.40;66.30;;;;;;5059129;28;20175;-21
2022/02/23 05:04:50;;;;;;;1.10;1.00;;;16.40;66.30;;;;;;5058697;28;20507;-21
2022/02/23 05:07:16;;;;;;;1.17;1.08;;;16.40;66.40;;;;;;5067483;28;20044;-22
2022/02/23 05:09:42;;;;;;;0.98;0.80;;;16.40;66.50;;;;;;5058101;28;20419;-21
2022/02/23 05:12:08;;;;;;;1.23;1.00;;;16.40;66.30;;;;;;5059175;28;20040;-21
2022/02/23 05:14:34;;;;;;;1.25;1.15;;;16.30;66.40;;;;;;5075104;28;20048;-21
2022/02/23 05:16:59;;;;;;;1.13;0.80;;;16.30;67.20;;;;;;5078044;28;20044;-21
2022/02/23 05:19:25;;;;;;;1.95;1.17;;;16.30;66.40;;;;;;5069083;28;20053;-21
2022/02/23 05:21:51;;;;;;;1.98;1.20;;;16.30;66.30;;;;;;5060181;28;20583;-21
2022/02/23 05:24:16;;;;;;;0.93;0.93;;;16.30;66.30;;;;;;5061950;28;20044;-21
2022/02/23 05:26:42;;;;;;;1.30;0.88;;;16.40;66.30;;;;;;5058315;28;20557;-21
2022/02/23 05:29:07;;;;;;;1.10;0.90;;;16.30;66.20;;;;;;5058958;28;20080;-21
2022/02/23 05:31:33;;;;;;;1.20;1.10;;;16.30;66.30;;;;;;5057760;28;20166;-20
2022/02/23 05:33:58;;;;;;;0.80;0.80;;;16.30;66.30;;;;;;5059116;28;20486;-20
2022/02/23 05:36:24;;;;;;;1.15;1.15;;;16.30;66.30;;;;;;5073205;28;20040;-20
2022/02/23 05:38:50;;;;;;;0.73;0.70;;;16.30;66.40;;;;;;5071897;28;20554;-20
2022/02/23 05:41:15;;;;;;;1.10;1.00;;;16.30;66.40;;;;;;5078509;28;20040;-21
2022/02/23 05:43:41;;;;;;;0.93;0.82;;;16.30;66.30;;;;;;5060013;28;20490;-21
2022/02/23 05:46:06;;;;;;;1.10;1.00;;;16.20;66.40;;;;;;5058619;28;20048;-21
2022/02/23 05:48:32;;;;;;;1.67;0.70;;;16.30;66.40;;;;;;5058088;28;20041;-21
2022/02/23 05:50:57;;;;;;;1.35;0.93;;;16.40;66.30;;;;;;5058574;28;20505;-22
2022/02/23 05:53:23;;;;;;;1.15;1.00;;;16.30;66.20;;;;;;5062406;28;20045;-21
2022/02/23 05:55:49;;;;;;;0.80;0.77;;;16.30;66.30;;;;;;5057495;28;20102;-20
2022/02/23 05:58:14;;;;;;;1.10;1.00;;;16.30;66.20;;;;;;5058443;28;20045;-21
2022/02/23 06:00:40;;;;;;;0.93;0.85;;;16.30;66.30;;;;;;5058883;28;20073;-21
2022/02/23 06:03:09;;;;;;;0.80;0.80;;;16.30;66.40;;;;;;5069788;28;20397;-21
2022/02/23 06:05:34;;;;;;;1.45;1.23;;;16.30;66.50;;;;;;5057617;28;20093;-21
2022/02/23 06:08:00;;;;;;;0.88;0.63;;;16.30;66.40;;;;;;5063811;28;20098;-21
2022/02/23 06:10:27;;;;;;;1.55;0.80;;;16.30;66.40;;;;;;5068367;28;20065;-20
2022/02/23 06:12:53;;;;;;;1.33;0.90;;;16.30;66.70;;;;;;5063222;28;20497;-20
2022/02/23 06:15:19;;;;;;;1.48;1.25;;;16.20;67.10;;;;;;5059313;28;20382;-20
2022/02/23 06:17:44;;;;;;;3.97;1.13;;;16.20;67.30;;;;;;4707037;28;10000490;-21
2022/02/23 06:20:10;;;;;;;1.30;1.10;;;16.20;67.60;;;;;;5073710;28;20068;-23
2022/02/23 06:22:37;;;;;;;1.52;1.10;;;16.30;67.20;;;;;;5068794;28;20106;-20
2022/02/23 06:25:03;;;;;;;1.08;0.93;;;16.30;67.60;;;;;;5059428;28;20040;-22
2022/02/23 06:27:29;;;;;;;2.70;1.25;;;16.40;67.60;;;;;;5073149;28;20064;-20
2022/02/23 06:29:54;;;;;;;1.45;1.10;;;16.40;67.60;;;;;;5069904;28;20087;-21
2022/02/23 06:32:20;;;;;;;2.38;1.00;;;16.30;67.50;;;;;;5074424;28;20045;-20
2022/02/23 06:34:46;;;;;;;1.77;1.33;;;16.40;67.50;;;;;;5068763;28;20063;-20
2022/02/23 06:37:11;;;;;;;2.00;1.38;;;16.40;67.60;;;;;;5070454;28;20041;-21
2022/02/23 06:39:38;;;;;;;1.67;1.08;;;16.30;67.60;;;;;;5071047;28;20624;-20
2022/02/23 06:42:04;;;;;;;1.30;1.20;;;16.40;67.50;;;;;;5069121;28;20056;-21
2022/02/23 06:44:30;;;;;;;3.42;1.42;;;16.40;67.30;;;;;;5062972;28;20036;-20
2022/02/23 06:46:59;;;;;;;3.75;1.73;;;16.40;67.60;;;;;;5064802;28;20136;-20
2022/02/23 06:49:25;;;;;;;3.13;1.95;;;16.40;67.80;;;;;;5063871;28;20036;-21
2022/02/23 06:51:53;;;;;;;2.75;1.70;;;16.50;67.70;;;;;;5075799;28;20055;-21
2022/02/23 06:54:18;;;;;;;2.53;1.83;;;16.50;67.60;;;;;;5071520;28;20033;-21
2022/02/23 06:56:44;;;;;;;2.67;1.80;;;16.40;67.80;;;;;;5056597;28;20051;-21
2022/02/23 06:59:09;;;;;;;3.58;1.98;;;16.40;67.80;;;;;;5057035;28;20129;-21
2022/02/23 07:01:36;;;;;;;6.55;2.03;;;16.40;67.60;;;;;;5057185;28;20037;-21
2022/02/23 07:04:02;;;;;;;3.60;1.98;;;16.40;67.50;;;;;;5056579;28;20383;-21
2022/02/23 07:06:28;;;;;;;2.42;1.77;;;16.40;67.30;;;;;;5057087;28;20222;-21
2022/02/23 07:08:53;;;;;;;7.15;1.98;;;16.40;67.80;;;;;;5056235;28;20041;-20
2022/02/23 07:11:19;;;;;;;2.47;1.90;;;16.30;67.70;;;;;;5055401;28;20111;-20
2022/02/23 07:13:45;;;;;;;3.58;1.80;;;16.40;67.30;;;;;;5064886;28;20051;-21
2022/02/23 07:16:15;;;;;;;4.13;1.50;;;16.40;67.30;;;;;;5075186;28;20040;-20
2022/02/23 07:18:40;;;;;;;4.82;1.90;;;16.40;67.30;;;;;;5075449;28;20041;-20
2022/02/23 07:21:06;;;;;;;1.98;1.50;;;16.40;67.60;;;;;;5060859;28;20056;-20
2022/02/23 07:23:32;;;;;;;2.60;1.55;;;16.40;67.60;;;;;;5064081;28;20033;-21
2022/02/23 07:25:57;;;;;;;1.60;1.40;;;16.40;67.50;;;;;;5074813;28;20041;-21
2022/02/23 07:28:24;;;;;;;2.80;1.60;;;16.40;67.40;;;;;;5068455;28;20044;-21
2022/02/23 07:30:51;;;;;;;3.20;1.85;;;16.40;67.30;;;;;;5055921;28;20379;-21
2022/02/23 07:33:18;;;;;;;1.98;1.67;;;16.50;67.30;;;;;;5056131;28;20047;-21
2022/02/23 07:35:44;;;;;;;3.28;1.70;;;16.40;67.40;;;;;;5061605;28;20037;-21
2022/02/23 07:38:09;;;;;;;1.63;1.52;;;16.40;67.50;;;;;;5062992;28;20094;-21
2022/02/23 07:40:35;;;;;;;2.95;1.40;;;16.40;67.30;;;;;;5059096;28;20792;-20
2022/02/23 07:43:03;;;;;;;3.47;1.33;;;16.40;67.30;;;;;;5054708;28;20132;-21
2022/02/23 07:45:29;;;;;;;2.75;1.55;;;16.40;67.40;;;;;;5055643;28;20063;-22
2022/02/23 07:47:54;;;;;;;1.50;1.40;;;16.50;67.20;;;;;;5054996;28;20041;-21
2022/02/23 07:50:20;;;;;;;2.50;1.55;;;16.40;67.00;;;;;;5059894;28;20059;-21
2022/02/23 07:52:50;;;;;;;2.60;1.80;;;16.40;67.10;;;;;;5060567;28;20494;-21
2022/02/23 07:55:16;;;;;;;2.13;1.50;;;16.40;67.30;;;;;;5061410;28;20047;-21
2022/02/23 07:57:41;;;;;;;3.33;1.73;;;16.40;67.20;;;;;;5064692;28;20037;-20
2022/02/23 08:00:09;;;;;;;4.13;1.40;;;16.40;67.10;;;;;;5075581;28;20051;-21
2022/02/23 08:02:35;;;;;;;1.83;1.40;;;16.40;67.30;;;;;;5072304;28;20032;-21
2022/02/23 08:05:01;;;;;;;1.48;1.33;;;16.40;67.30;;;;;;5057035;28;20053;-20
2022/02/23 08:07:28;;;;;;;1.60;1.40;;;16.40;67.30;;;;;;5064474;28;20045;-21
2022/02/23 08:09:53;;;;;;;2.17;1.98;;;16.40;67.00;;;;;;5059783;28;20056;-21
2022/02/23 08:12:19;;;;;;;2.20;1.38;;;16.40;67.00;;;;;;5069532;28;20047;-21
2022/02/23 08:14:45;;;;;;;3.00;1.50;;;16.40;67.20;;;;;;5062839;28;20068;-20
2022/02/23 08:19:55;;;;;;;1.95;1.63;;;16.30;67.10;;;;;;5061160;28;20055;-22
2022/02/23 08:22:27;;;;;;;1.70;1.35;;;16.30;67.20;;;;;;5063485;28;20045;-20
2022/02/23 08:24:53;;;;;;;2.30;1.40;;;16.40;67.20;;;;;;5065583;28;20040;-21
2022/02/23 08:27:20;;;;;;;2.35;1.10;;;16.40;67.10;;;;;;5063143;28;20059;-20
2022/02/23 08:29:45;;;;;;;1.83;1.33;;;16.30;67.20;;;;;;5068640;28;20048;-21
2022/02/23 08:32:12;;;;;;;2.20;1.42;;;16.30;67.30;;;;;;5059214;28;20059;-21
2022/02/23 08:34:39;;;;;;;3.33;1.30;;;16.30;67.30;;;;;;5063698;28;20505;-21
2022/02/23 08:37:05;;;;;;;4.30;1.50;;;16.30;67.30;;;;;;5062670;28;20069;-21
2022/02/23 08:39:32;;;;;;;5.28;1.40;;;16.30;67.10;;;;;;5065939;28;20033;-21
2022/02/23 08:41:58;;;;;;;1.52;1.15;;;16.30;67.20;;;;;;5065081;28;20498;-20
2022/02/23 08:44:24;;;;;;;2.03;1.48;;;16.30;67.20;;;;;;5064471;28;20412;-21
2022/02/23 08:46:49;;;;;;;4.63;1.40;;;16.30;67.30;;;;;;5064828;28;20041;-21
2022/02/23 08:49:15;;;;;;;2.00;1.35;;;16.30;67.40;;;;;;5066410;28;20602;-21
2022/02/23 08:51:43;;;;;;;2.13;1.40;;;16.30;67.40;;;;;;5064804;28;20037;-21
2022/02/23 08:54:08;;;;;;;2.15;1.02;;;16.30;67.30;;;;;;5062002;28;20041;-20
2022/02/23 08:56:34;;;;;;;3.17;1.67;;;16.30;67.20;;;;;;5060212;28;20041;-20
2022/02/23 08:58:59;;;;;;;2.00;1.30;;;16.30;67.70;;;;;;5062817;28;20508;-20
2022/02/23 09:01:26;;;;;;;1.38;1.27;;;16.40;67.00;;;;;;5060299;28;20040;-20
2022/02/23 09:03:52;;;;;;;2.15;1.58;;;16.40;66.90;;;;;;5064217;28;20037;-21
2022/02/23 09:06:18;;;;;;;1.65;1.55;;;16.40;66.90;;;;;;5074879;28;20048;-21
2022/02/23 09:08:44;;;;;;;2.33;1.77;;;16.30;67.00;;;;;;5070852;28;20680;-22
2022/02/23 09:11:12;;;;;;;2.45;1.52;;;16.30;67.10;;;;;;5054367;28;20481;-20
2022/02/23 09:13:37;;;;;;;2.30;1.80;;;16.40;67.10;;;;;;5063702;28;20040;-21
2022/02/23 09:16:04;;;;;;;1.67;1.55;;;16.40;67.00;;;;;;5072175;28;20059;-21
2022/02/23 09:18:30;;;;;;;3.38;1.35;;;16.30;67.10;;;;;;5071726;28;20048;-20
2022/02/23 09:20:56;;;;;;;3.28;1.42;;;16.30;67.10;;;;;;5073680;28;20041;-20
2022/02/23 09:23:21;;;;;;;1.20;1.10;;;16.30;67.20;;;;;;5054858;28;20125;-20
2022/02/23 09:25:47;;;;;;;1.80;1.42;;;16.30;67.10;;;;;;5053949;28;20494;-20
2022/02/23 09:28:12;;;;;;;2.17;1.30;;;16.30;67.20;;;;;;5054395;28;20029;-20
2022/02/23 09:30:38;;;;;;;1.33;1.23;;;16.30;67.20;;;;;;5054976;28;20045;-21
2022/02/23 09:33:04;;;;;;;3.47;1.40;;;16.30;67.10;;;;;;5054106;28;20103;-20
2022/02/23 09:35:29;;;;;;;1.40;1.30;;;16.30;67.10;;;;;;5061596;28;20057;-23
2022/02/23 09:37:57;;;;;;;4.28;1.38;;;16.30;67.10;;;;;;5071895;28;20120;-21
2022/02/23 09:40:23;;;;;;;1.52;1.15;;;16.40;66.90;;;;;;5054660;28;20127;-21
2022/02/23 09:42:50;;;;;;;1.48;1.38;;;16.40;66.70;;;;;;5054222;28;20133;-21
2022/02/23 09:45:15;;;;;;;1.65;1.30;;;16.40;66.60;;;;;;5057532;28;20502;-21
2022/02/23 09:47:41;;;;;;;2.03;1.70;;;16.40;66.80;;;;;;5058106;28;20517;-21
2022/02/23 09:50:10;;;;;;;1.98;1.40;;;16.40;66.80;;;;;;5068479;28;20048;-21
2022/02/23 09:52:36;;;;;;;1.50;1.40;;;16.30;66.80;;;;;;5068288;28;20070;-21
2022/02/23 09:55:03;;;;;;;1.55;1.40;;;16.30;66.80;;;;;;5060148;28;20620;-20
2022/02/23 09:57:28;;;;;;;2.17;1.60;;;16.40;66.90;;;;;;5063175;28;20056;-21
2022/02/23 09:59:55;;;;;;;2.38;1.45;;;16.40;66.80;;;;;;5068834;28;20044;-21
2022/02/23 10:02:21;;;;;;;4.18;2.35;;;16.50;66.70;;;;;;5078191;28;20517;-21
2022/02/23 10:04:48;;;;;;;3.20;2.85;;;16.50;66.50;;;;;;5078254;28;20410;-21
2022/02/23 10:07:14;;;;;;;2.78;2.55;;;16.50;66.50;;;;;;5071204;28;20049;-21
2022/02/23 10:09:42;;;;;;;2.50;2.25;;;16.50;66.40;;;;;;5057840;28;20052;-21
2022/02/23 10:12:08;;;;;;;2.80;2.60;;;16.50;66.60;;;;;;5057285;28;20046;-21
2022/02/23 10:14:34;;;;;;;2.50;2.30;;;16.50;66.50;;;;;;5062698;28;20052;-20
2022/02/23 10:16:59;;;;;;;2.67;2.47;;;16.50;66.50;;;;;;5076660;28;20033;-21
2022/02/23 10:19:25;;;;;;;2.90;2.40;;;16.50;66.30;;;;;;5075318;28;20521;-21
2022/02/23 10:22:00;;;;;;;2.90;2.30;;;16.50;66.20;;;;;;5067191;28;20067;-21
2022/02/23 10:24:29;;;;;;;3.05;2.67;;;16.50;66.20;;;;;;5064772;28;20045;-21
2022/02/23 10:27:07;;;;;;;3.95;2.53;;;16.60;66.10;;;;;;5065661;28;20103;-21
2022/02/23 10:29:45;;;;;;;3.35;3.05;;;16.60;66.00;;;;;;5061395;28;20041;-20
2022/02/23 10:32:12;;;;;;;3.35;3.15;;;16.60;66.00;;;;;;5065648;28;20045;-20
2022/02/23 10:34:42;;;;;;;4.85;3.75;;;16.60;65.70;;;;;;5068178;28;20094;-21
2022/02/23 10:37:08;;;;;;;5.65;3.65;;;16.60;65.70;;;;;;5063018;28;20489;-21
2022/02/23 10:39:45;;;;;;;4.22;3.83;;;16.70;66.00;;;;;;5057654;28;20563;-21
2022/02/23 10:42:12;;;;;;;3.65;3.45;;;16.60;65.60;;;;;;5064467;28;20048;-21
2022/02/23 10:44:42;;;;;;;3.65;3.45;;;16.70;65.50;;;;;;5068432;28;20045;-21
2022/02/23 10:47:08;;;;;;;4.53;3.90;;;16.70;65.40;;;;;;5067971;28;20040;-21
2022/02/23 10:49:34;;;;;;;3.85;3.65;;;16.70;65.40;;;;;;5066339;28;20056;-21
2022/02/23 10:52:06;;;;;;;3.75;3.50;;;16.70;65.40;;;;;;5068725;28;20049;-21
2022/02/23 10:54:32;;;;;;;3.78;3.47;;;16.70;66.20;;;;;;5067876;28;20094;-21
2022/02/23 10:56:58;;;;;;;3.95;3.65;;;16.70;65.40;;;;;;5068144;28;20044;-20
2022/02/23 10:59:23;;;;;;;3.90;3.60;;;16.70;65.30;;;;;;5071164;28;20037;-20
2022/02/23 11:01:49;;;;;;;4.22;3.92;;;16.70;65.30;;;;;;5062717;28;20405;-20
2022/02/23 11:04:16;;;;;;;4.03;3.72;;;16.70;65.20;;;;;;5064997;28;20131;-21
2022/02/23 11:06:44;;;;;;;5.18;3.60;;;16.70;65.20;;;;;;5062281;28;20131;-21
2022/02/23 11:09:10;;;;;;;4.10;3.70;;;16.80;65.20;;;;;;5061474;28;20053;-20
2022/02/23 11:11:36;;;;;;;4.07;3.80;;;16.70;65.20;;;;;;5057025;28;20045;-21
2022/02/23 11:14:03;;;;;;;3.80;3.50;;;16.70;65.10;;;;;;5069487;28;20037;-21
2022/02/23 11:16:31;;;;;;;3.47;3.28;;;16.70;65.20;;;;;;5075055;28;20041;-21
2022/02/23 11:18:58;;;;;;;3.38;3.08;;;16.70;65.10;;;;;;5067577;28;20046;-20
2022/02/23 11:21:24;;;;;;;3.45;3.15;;;16.70;65.20;;;;;;5070504;28;20127;-20
2022/02/23 11:23:50;;;;;;;3.38;3.08;;;16.70;65.20;;;;;;5070266;28;20390;-22
2022/02/23 11:26:19;;;;;;;3.00;2.80;;;16.80;65.10;;;;;;5072773;28;20106;-20
2022/02/23 11:28:58;;;;;;;3.15;2.85;;;16.80;65.00;;;;;;5064571;28;20490;-21
2022/02/23 11:31:24;;;;;;;3.15;2.95;;;16.80;65.10;;;;;;5038890;28;20033;-21
2022/02/23 11:33:49;;;;;;;3.53;3.22;;;16.80;65.00;;;;;;5055083;28;20053;-21
2022/02/23 11:36:31;;;;;;;3.45;3.15;;;16.80;65.00;;;;;;5061009;28;20059;-21
2022/02/23 11:39:04;;;;;;;4.03;3.75;;;16.80;64.60;;;;;;5058336;28;20468;-21
2022/02/23 11:41:31;;;;;;;6.03;4.95;;;16.80;64.90;;;;;;5068065;28;20045;-20
2022/02/23 11:44:00;;;;;;;5.50;5.00;;;16.80;64.80;;;;;;5067040;28;20102;-21
2022/02/23 11:46:26;;;;;;;5.63;5.13;;;16.80;65.10;;;;;;5066686;28;20051;-21
2022/02/23 11:48:59;;;;;;;6.60;6.00;;;16.80;65.40;;;;;;5055901;28;20040;-21
2022/02/23 11:51:29;;;;;;;8.45;6.60;;;16.90;66.10;;;;;;5055779;28;20045;-21
2022/02/23 11:53:55;;;;;;;8.55;7.03;;;16.90;66.20;;;;;;5055106;28;20048;-21
2022/02/23 11:56:38;;;;;;;8.60;7.56;;;16.90;66.80;;;;;;4916478;28;10000530;-22
2022/02/23 11:59:04;;;;;;;9.07;7.72;;;16.90;67.40;;;;;;5068700;28;20340;-20
2022/02/23 12:01:29;;;;;;;9.30;8.25;;;16.90;67.00;;;;;;5069003;28;20052;-20
2022/02/23 12:04:13;;;;;;;9.15;8.20;;;17.00;67.80;;;;;;5058340;28;20520;-21
2022/02/23 12:07:10;;;;;;;9.63;8.52;;;17.00;68.00;;;;;;5074796;28;20051;-21
2022/02/23 12:09:59;;;;;;;7.75;7.05;;;17.00;67.70;;;;;;5063639;28;20052;-22
2022/02/23 12:12:40;;;;;;;10.50;7.88;;;17.00;68.20;;;;;;5067227;28;20505;-21
2022/02/23 12:15:27;;;;;;;9.23;7.55;;;17.00;67.50;;;;;;5064153;28;20110;-21
2022/02/23 12:18:16;;;;;;;7.95;7.10;;;17.00;67.50;;;;;;5063069;28;20509;-22
2022/02/23 12:20:46;;;;;;;7.82;7.03;;;17.00;67.80;;;;;;5061572;28;20451;-21
2022/02/23 12:23:11;;;;;;;8.43;7.05;;;17.00;67.90;;;;;;5070741;28;20044;-21
2022/02/23 12:25:56;;;;;;;8.38;7.47;;;17.10;68.00;;;;;;5066376;28;20044;-20
2022/02/23 12:28:23;;;;;;;7.63;6.93;;;17.20;67.90;;;;;;5061090;28;20055;-21
2022/02/23 12:30:56;;;;;;;12.80;7.22;;;17.20;67.20;;;;;;5066860;28;20052;-21
2022/02/23 12:33:22;;;;;;;8.82;7.30;;;17.20;67.40;;;;;;5058809;28;20043;-20
2022/02/23 12:35:48;;;;;;;7.28;6.57;;;17.20;68.10;;;;;;5063050;28;20048;-20
2022/02/23 12:38:14;;;;;;;7.47;6.68;;;17.20;67.20;;;;;;5062849;28;20032;-21
2022/02/23 12:40:40;;;;;;;7.70;6.90;;;17.20;67.60;;;;;;5072823;28;20516;-21
2022/02/23 12:43:07;;;;;;;7.32;6.72;;;17.40;67.60;;;;;;5062811;28;20051;-21
2022/02/23 12:45:44;;;;;;;7.68;6.38;;;17.40;67.10;;;;;;5067270;28;20055;-20